sensor_id;sensor_type;location;lat;lon;timestamp;pressure;altitude;pressure_sealevel;temperature;humidity
78613;BME280;67933;51.060;3.638;2024-02-23T00:01:04;99013.94;;;4.24;100.00
78613;BME280;67933;51.060;3.638;2024-02-23T00:03:29;99010.19;;;4.14;100.00
78613;BME280;67933;51.060;3.638;2024-02-23T00:05:55;99017.13;;;4.15;100.00
78613;BME280;67933;51.060;3.638;2024-02-23T00:08:20;99025.63;;;4.18;100.00
78613;BME280;67933;51.060;3.638;2024-02-23T00:10:46;99018.53;;;4.20;100.00
78613;BME280;67933;51.060;3.638;2024-02-23T00:13:11;99025.94;;;4.28;100.00
78613;BME280;67933;51.060;3.638;2024-02-23T00:15:37;99019.56;;;4.46;100.00
78613;BME280;67933;51.060;3.638;2024-02-23T00:18:02;99022.66;;;4.53;100.00
78613;BME280;67933;51.060;3.638;2024-02-23T00:20:29;99016.25;;;4.57;100.00
78613;BME280;67933;51.060;3.638;2024-02-23T00:22:55;99013.75;;;4.55;100.00
78613;BME280;67933;51.060;3.638;2024-02-23T00:25:20;99022.66;;;4.53;100.00
78613;BME280;67933;51.060;3.638;2024-02-23T00:27:45;99034.44;;;4.60;100.00
78613;BME280;67933;51.060;3.638;2024-02-23T00:30:13;99029.38;;;4.71;100.00
78613;BME280;67933;51.060;3.638;2024-02-23T00:32:39;99027.13;;;4.65;100.00
78613;BME280;67933;51.060;3.638;2024-02-23T00:35:05;99037.38;;;4.55;100.00
78613;BME280;67933;51.060;3.638;2024-02-23T00:37:31;99041.19;;;4.50;100.00
78613;BME280;67933;51.060;3.638;2024-02-23T00:40:04;99036.91;;;4.35;100.00
78613;BME280;67933;51.060;3.638;2024-02-23T00:42:30;99047.13;;;4.25;100.00
78613;BME280;67933;51.060;3.638;2024-02-23T00:44:56;99049.56;;;4.14;100.00
78613;BME280;67933;51.060;3.638;2024-02-23T00:47:21;99044.75;;;4.06;100.00
78613;BME280;67933;51.060;3.638;2024-02-23T00:49:47;99055.81;;;4.11;100.00
78613;BME280;67933;51.060;3.638;2024-02-23T00:52:12;99066.97;;;4.01;100.00
78613;BME280;67933;51.060;3.638;2024-02-23T00:54:37;99072.31;;;3.99;100.00
78613;BME280;67933;51.060;3.638;2024-02-23T00:57:03;99077.16;;;3.91;100.00
78613;BME280;67933;51.060;3.638;2024-02-23T00:59:28;99078.09;;;3.90;100.00
78613;BME280;67933;51.060;3.638;2024-02-23T01:01:55;99062.81;;;3.97;100.00
78613;BME280;67933;51.060;3.638;2024-02-23T01:04:21;99064.44;;;3.99;100.00
78613;BME280;67933;51.060;3.638;2024-02-23T01:06:46;99055.63;;;4.00;100.00
78613;BME280;67933;51.060;3.638;2024-02-23T01:09:12;99067.97;;;3.84;100.00
78613;BME280;67933;51.060;3.638;2024-02-23T01:11:37;99078.63;;;3.81;100.00
78613;BME280;67933;51.060;3.638;2024-02-23T01:14:02;99068.13;;;3.81;100.00
78613;BME280;67933;51.060;3.638;2024-02-23T01:16:28;99067.59;;;3.90;100.00
78613;BME280;67933;51.060;3.638;2024-02-23T01:18:53;99079.25;;;4.00;100.00
78613;BME280;67933;51.060;3.638;2024-02-23T01:21:19;99069.69;;;4.13;100.00
78613;BME280;67933;51.060;3.638;2024-02-23T01:23:44;99068.31;;;4.22;100.00
78613;BME280;67933;51.060;3.638;2024-02-23T01:26:09;99062.38;;;4.18;100.00
78613;BME280;67933;51.060;3.638;2024-02-23T01:28:35;99076.47;;;4.17;100.00
78613;BME280;67933;51.060;3.638;2024-02-23T01:31:00;99081.88;;;4.14;100.00
78613;BME280;67933;51.060;3.638;2024-02-23T01:33:26;99077.56;;;4.13;100.00
78613;BME280;67933;51.060;3.638;2024-02-23T01:35:51;99077.84;;;4.09;100.00
78613;BME280;67933;51.060;3.638;2024-02-23T01:38:16;99078.69;;;4.09;100.00
78613;BME280;67933;51.060;3.638;2024-02-23T01:40:45;99077.00;;;4.08;100.00
78613;BME280;67933;51.060;3.638;2024-02-23T01:43:11;99078.50;;;4.12;100.00
78613;BME280;67933;51.060;3.638;2024-02-23T01:45:36;99067.34;;;4.09;100.00
78613;BME280;67933;51.060;3.638;2024-02-23T01:48:02;99080.94;;;4.01;100.00
78613;BME280;67933;51.060;3.638;2024-02-23T01:50:29;99078.19;;;4.03;100.00
78613;BME280;67933;51.060;3.638;2024-02-23T01:52:57;99065.19;;;4.01;100.00
78613;BME280;67933;51.060;3.638;2024-02-23T01:55:25;99065.56;;;4.09;100.00
78613;BME280;67933;51.060;3.638;2024-02-23T01:57:50;99083.94;;;4.09;100.00
78613;BME280;67933;51.060;3.638;2024-02-23T02:00:18;99084.41;;;4.16;100.00
78613;BME280;67933;51.060;3.638;2024-02-23T02:02:44;99076.47;;;4.17;100.00
78613;BME280;67933;51.060;3.638;2024-02-23T02:05:10;99071.38;;;4.14;100.00
78613;BME280;67933;51.060;3.638;2024-02-23T02:07:36;99069.22;;;4.21;100.00
78613;BME280;67933;51.060;3.638;2024-02-23T02:10:04;99069.91;;;4.24;100.00
78613;BME280;67933;51.060;3.638;2024-02-23T02:12:31;99077.66;;;4.26;100.00
78613;BME280;67933;51.060;3.638;2024-02-23T02:14:57;99068.31;;;4.22;100.00
78613;BME280;67933;51.060;3.638;2024-02-23T02:17:22;99083.28;;;4.20;100.00
78613;BME280;67933;51.060;3.638;2024-02-23T02:19:48;99093.31;;;4.28;100.00
78613;BME280;67933;51.060;3.638;2024-02-23T02:22:13;99073.94;;;4.30;100.00
78613;BME280;67933;51.060;3.638;2024-02-23T02:24:39;99077.56;;;4.28;100.00
78613;BME280;67933;51.060;3.638;2024-02-23T02:27:07;99081.25;;;4.25;100.00
78613;BME280;67933;51.060;3.638;2024-02-23T02:29:35;99080.97;;;4.30;100.00
78613;BME280;67933;51.060;3.638;2024-02-23T02:32:01;99084.53;;;4.29;100.00
78613;BME280;67933;51.060;3.638;2024-02-23T02:34:27;99086.38;;;4.26;100.00
78613;BME280;67933;51.060;3.638;2024-02-23T02:36:54;99087.44;;;4.24;100.00
78613;BME280;67933;51.060;3.638;2024-02-23T02:39:19;99083.19;;;4.21;100.00
78613;BME280;67933;51.060;3.638;2024-02-23T02:41:45;99101.41;;;4.24;100.00
78613;BME280;67933;51.060;3.638;2024-02-23T02:44:10;99100.34;;;4.27;100.00
78613;BME280;67933;51.060;3.638;2024-02-23T02:46:38;99097.56;;;4.30;100.00
78613;BME280;67933;51.060;3.638;2024-02-23T02:49:03;99090.78;;;4.26;100.00
78613;BME280;67933;51.060;3.638;2024-02-23T02:51:29;99093.53;;;4.24;100.00
78613;BME280;67933;51.060;3.638;2024-02-23T02:53:54;99094.16;;;4.28;100.00
78613;BME280;67933;51.060;3.638;2024-02-23T02:56:20;99087.22;;;4.27;100.00
78613;BME280;67933;51.060;3.638;2024-02-23T02:58:45;99089.69;;;4.30;100.00
78613;BME280;67933;51.060;3.638;2024-02-23T03:01:10;99087.81;;;4.32;100.00
78613;BME280;67933;51.060;3.638;2024-02-23T03:03:36;99084.81;;;4.38;100.00
78613;BME280;67933;51.060;3.638;2024-02-23T03:06:01;99082.94;;;4.40;100.00
78613;BME280;67933;51.060;3.638;2024-02-23T03:08:27;99063.44;;;4.44;100.00
78613;BME280;67933;51.060;3.638;2024-02-23T03:10:52;99068.78;;;4.43;100.00
78613;BME280;67933;51.060;3.638;2024-02-23T03:13:17;99080.88;;;4.45;100.00
78613;BME280;67933;51.060;3.638;2024-02-23T03:15:43;99073.28;;;4.41;100.00
78613;BME280;67933;51.060;3.638;2024-02-23T03:18:08;99085.28;;;4.45;100.00
78613;BME280;67933;51.060;3.638;2024-02-23T03:20:37;99081.72;;;4.46;100.00
78613;BME280;67933;51.060;3.638;2024-02-23T03:23:03;99077.97;;;4.50;100.00
78613;BME280;67933;51.060;3.638;2024-02-23T03:25:29;99090.91;;;4.53;100.00
78613;BME280;67933;51.060;3.638;2024-02-23T03:27:54;99086.41;;;4.55;100.00
78613;BME280;67933;51.060;3.638;2024-02-23T03:30:20;99079.28;;;4.57;100.00
78613;BME280;67933;51.060;3.638;2024-02-23T03:32:45;99068.75;;;4.57;100.00
78613;BME280;67933;51.060;3.638;2024-02-23T03:35:12;99068.13;;;4.53;100.00
78613;BME280;67933;51.060;3.638;2024-02-23T03:37:38;99062.03;;;4.53;100.00
78613;BME280;67933;51.060;3.638;2024-02-23T03:40:07;99060.34;;;4.52;100.00
78613;BME280;67933;51.060;3.638;2024-02-23T03:42:32;99060.72;;;4.46;100.00
78613;BME280;67933;51.060;3.638;2024-02-23T03:44:58;99064.28;;;4.45;100.00
78613;BME280;67933;51.060;3.638;2024-02-23T03:47:23;99068.13;;;4.39;100.00
78613;BME280;67933;51.060;3.638;2024-02-23T03:49:49;99064.00;;;4.35;100.00
78613;BME280;67933;51.060;3.638;2024-02-23T03:52:14;99059.88;;;4.31;100.00
78613;BME280;67933;51.060;3.638;2024-02-23T03:54:40;99061.19;;;4.38;100.00
78613;BME280;67933;51.060;3.638;2024-02-23T03:57:05;99051.44;;;4.40;100.00
78613;BME280;67933;51.060;3.638;2024-02-23T03:59:30;99059.56;;;4.50;100.00
78613;BME280;67933;51.060;3.638;2024-02-23T04:01:56;99048.81;;;4.54;100.00
78613;BME280;67933;51.060;3.638;2024-02-23T04:04:21;99043.47;;;4.56;100.00
78613;BME280;67933;51.060;3.638;2024-02-23T04:06:47;99042.72;;;4.54;100.00
78613;BME280;67933;51.060;3.638;2024-02-23T04:09:12;99033.63;;;4.45;100.00
78613;BME280;67933;51.060;3.638;2024-02-23T04:11:38;99033.78;;;4.42;100.00
78613;BME280;67933;51.060;3.638;2024-02-23T04:14:04;99036.53;;;4.41;100.00
78613;BME280;67933;51.060;3.638;2024-02-23T04:16:30;99033.78;;;4.42;100.00
78613;BME280;67933;51.060;3.638;2024-02-23T04:18:56;99013.66;;;4.43;100.00
78613;BME280;67933;51.060;3.638;2024-02-23T04:21:21;99023.22;;;4.44;100.00
78613;BME280;67933;51.060;3.638;2024-02-23T04:23:47;99020.03;;;4.53;100.00
78613;BME280;67933;51.060;3.638;2024-02-23T04:26:13;99018.16;;;4.55;100.00
78613;BME280;67933;51.060;3.638;2024-02-23T04:28:41;99025.28;;;4.53;100.00
78613;BME280;67933;51.060;3.638;2024-02-23T04:31:10;99022.28;;;4.45;100.00
78613;BME280;67933;51.060;3.638;2024-02-23T04:33:36;99020.88;;;4.39;100.00
78613;BME280;67933;51.060;3.638;2024-02-23T04:36:02;99013.94;;;4.38;100.00
78613;BME280;67933;51.060;3.638;2024-02-23T04:38:32;99012.16;;;4.39;100.00
78613;BME280;67933;51.060;3.638;2024-02-23T04:40:58;99024.06;;;4.30;100.00
78613;BME280;67933;51.060;3.638;2024-02-23T04:43:24;99029.31;;;4.30;100.00
78613;BME280;67933;51.060;3.638;2024-02-23T04:45:50;99043.47;;;4.28;100.00
78613;BME280;67933;51.060;3.638;2024-02-23T04:48:16;99018.34;;;4.23;100.00
78613;BME280;67933;51.060;3.638;2024-02-23T04:50:41;99012.34;;;4.21;100.00
78613;BME280;67933;51.060;3.638;2024-02-23T04:53:07;99022.75;;;4.23;100.00
78613;BME280;67933;51.060;3.638;2024-02-23T04:55:33;99007.28;;;4.18;100.00
78613;BME280;67933;51.060;3.638;2024-02-23T04:57:58;99011.59;;;4.19;100.00
78613;BME280;67933;51.060;3.638;2024-02-23T05:00:23;99008.41;;;4.14;100.00
78613;BME280;67933;51.060;3.638;2024-02-23T05:02:53;98995.19;;;4.16;100.00
78613;BME280;67933;51.060;3.638;2024-02-23T05:05:19;99000.53;;;4.14;100.00
78613;BME280;67933;51.060;3.638;2024-02-23T05:07:44;99001.47;;;4.13;100.00
78613;BME280;67933;51.060;3.638;2024-02-23T05:10:10;99013.47;;;4.17;100.00
78613;BME280;67933;51.060;3.638;2024-02-23T05:12:35;99014.31;;;4.18;100.00
78613;BME280;67933;51.060;3.638;2024-02-23T05:15:01;98993.81;;;4.24;100.00
78613;BME280;67933;51.060;3.638;2024-02-23T05:17:26;99010.38;;;4.25;100.00
78613;BME280;67933;51.060;3.638;2024-02-23T05:19:52;98999.06;;;4.24;100.00
78613;BME280;67933;51.060;3.638;2024-02-23T05:22:17;99005.31;;;4.22;100.00
78613;BME280;67933;51.060;3.638;2024-02-23T05:24:44;99011.31;;;4.24;100.00
78613;BME280;67933;51.060;3.638;2024-02-23T05:27:10;99007.84;;;4.23;100.00
78613;BME280;67933;51.060;3.638;2024-02-23T05:29:36;99002.59;;;4.23;100.00
78613;BME280;67933;51.060;3.638;2024-02-23T05:32:01;99011.59;;;4.19;100.00
78613;BME280;67933;51.060;3.638;2024-02-23T05:34:27;99006.06;;;4.24;100.00
78613;BME280;67933;51.060;3.638;2024-02-23T05:36:52;98998.28;;;4.22;100.00
78613;BME280;67933;51.060;3.638;2024-02-23T05:39:18;98994.44;;;4.28;100.00
78613;BME280;67933;51.060;3.638;2024-02-23T05:41:43;98995.28;;;4.29;100.00
78613;BME280;67933;51.060;3.638;2024-02-23T05:44:09;98990.50;;;4.35;100.00
78613;BME280;67933;51.060;3.638;2024-02-23T05:46:36;98992.66;;;4.43;100.00
78613;BME280;67933;51.060;3.638;2024-02-23T05:49:02;98987.03;;;4.49;100.00
78613;BME280;67933;51.060;3.638;2024-02-23T05:51:29;98978.19;;;4.50;100.00
78613;BME280;67933;51.060;3.638;2024-02-23T05:53:55;98981.56;;;4.52;100.00
78613;BME280;67933;51.060;3.638;2024-02-23T05:56:20;98972.00;;;4.51;100.00
78613;BME280;67933;51.060;3.638;2024-02-23T05:58:46;98971.28;;;4.49;100.00
78613;BME280;67933;51.060;3.638;2024-02-23T06:01:11;98976.06;;;4.56;100.00
78613;BME280;67933;51.060;3.638;2024-02-23T06:03:36;98966.56;;;4.54;100.00
78613;BME280;67933;51.060;3.638;2024-02-23T06:06:02;98961.22;;;4.55;100.00
78613;BME280;67933;51.060;3.638;2024-02-23T06:08:31;98976.78;;;4.58;100.00
78613;BME280;67933;51.060;3.638;2024-02-23T06:10:57;98980.81;;;4.64;100.00
78613;BME280;67933;51.060;3.638;2024-02-23T06:13:24;98972.94;;;4.64;100.00
78613;BME280;67933;51.060;3.638;2024-02-23T06:15:49;98972.53;;;4.70;100.00
78613;BME280;67933;51.060;3.638;2024-02-23T06:18:15;98962.97;;;4.69;100.00
78613;BME280;67933;51.060;3.638;2024-02-23T06:20:41;98965.59;;;4.69;100.00
78613;BME280;67933;51.060;3.638;2024-02-23T06:23:07;98969.06;;;4.70;100.00
78613;BME280;67933;51.060;3.638;2024-02-23T06:25:32;98956.22;;;4.65;100.00
78613;BME280;67933;51.060;3.638;2024-02-23T06:27:57;98978.56;;;4.72;100.00
78613;BME280;67933;51.060;3.638;2024-02-23T06:30:23;98975.63;;;4.77;100.00
78613;BME280;67933;51.060;3.638;2024-02-23T06:32:48;98975.53;;;4.78;100.00
78613;BME280;67933;51.060;3.638;2024-02-23T06:35:14;98977.94;;;4.81;100.00
78613;BME280;67933;51.060;3.638;2024-02-23T06:37:39;98983.41;;;4.78;100.00
78613;BME280;67933;51.060;3.638;2024-02-23T06:40:05;98964.34;;;4.75;100.00
78613;BME280;67933;51.060;3.638;2024-02-23T06:42:32;98963.72;;;4.71;100.00
78613;BME280;67933;51.060;3.638;2024-02-23T06:44:58;98972.53;;;4.70;100.00
78613;BME280;67933;51.060;3.638;2024-02-23T06:47:23;98953.94;;;4.73;100.00
78613;BME280;67933;51.060;3.638;2024-02-23T06:49:49;98967.81;;;4.75;100.00
78613;BME280;67933;51.060;3.638;2024-02-23T06:52:15;98958.44;;;4.85;100.00
78613;BME280;67933;51.060;3.638;2024-02-23T06:54:41;98959.38;;;4.84;100.00
78613;BME280;67933;51.060;3.638;2024-02-23T06:57:06;98984.28;;;4.91;100.00
78613;BME280;67933;51.060;3.638;2024-02-23T06:59:32;98965.50;;;4.97;100.00
78613;BME280;67933;51.060;3.638;2024-02-23T07:01:57;98975.81;;;5.00;100.00
78613;BME280;67933;51.060;3.638;2024-02-23T07:04:23;98967.00;;;5.01;100.00
78613;BME280;67933;51.060;3.638;2024-02-23T07:06:49;98974.44;;;4.95;100.00
78613;BME280;67933;51.060;3.638;2024-02-23T07:09:14;98982.59;;;4.90;100.00
78613;BME280;67933;51.060;3.638;2024-02-23T07:11:39;98975.47;;;4.92;100.00
78613;BME280;67933;51.060;3.638;2024-02-23T07:14:07;98979.38;;;4.99;100.00
78613;BME280;67933;51.060;3.638;2024-02-23T07:16:37;98987.28;;;4.99;100.00
78613;BME280;67933;51.060;3.638;2024-02-23T07:19:05;98971.00;;;4.80;100.00
78613;BME280;67933;51.060;3.638;2024-02-23T07:21:30;98979.66;;;4.68;100.00
78613;BME280;67933;51.060;3.638;2024-02-23T07:23:56;98962.06;;;4.56;100.00
78613;BME280;67933;51.060;3.638;2024-02-23T07:26:21;98972.75;;;4.53;100.00
78613;BME280;67933;51.060;3.638;2024-02-23T07:28:47;98973.69;;;4.52;100.00
78613;BME280;67933;51.060;3.638;2024-02-23T07:31:14;98965.06;;;4.50;100.00
78613;BME280;67933;51.060;3.638;2024-02-23T07:33:40;98973.16;;;4.47;100.00
78613;BME280;67933;51.060;3.638;2024-02-23T07:36:05;98968.97;;;4.57;100.00
78613;BME280;67933;51.060;3.638;2024-02-23T07:38:31;98966.28;;;4.58;100.00
78613;BME280;67933;51.060;3.638;2024-02-23T07:40:56;98980.69;;;4.65;100.00
78613;BME280;67933;51.060;3.638;2024-02-23T07:43:21;98975.63;;;4.77;100.00
78613;BME280;67933;51.060;3.638;2024-02-23T07:45:47;98973.44;;;4.83;100.00
78613;BME280;67933;51.060;3.638;2024-02-23T07:48:13;98982.41;;;4.93;100.00
78613;BME280;67933;51.060;3.638;2024-02-23T07:50:38;98964.78;;;4.95;100.00
78613;BME280;67933;51.060;3.638;2024-02-23T07:53:04;98977.50;;;5.01;100.00
78613;BME280;67933;51.060;3.638;2024-02-23T07:55:29;98979.22;;;5.02;100.00
78613;BME280;67933;51.060;3.638;2024-02-23T07:57:55;98971.84;;;5.08;100.00
78613;BME280;67933;51.060;3.638;2024-02-23T08:00:26;98984.81;;;5.11;100.00
78613;BME280;67933;51.060;3.638;2024-02-23T08:02:51;98981.56;;;5.20;100.00
78613;BME280;67933;51.060;3.638;2024-02-23T08:05:17;98978.63;;;5.24;100.00
78613;BME280;67933;51.060;3.638;2024-02-23T08:07:42;98981.16;;;5.26;100.00
78613;BME280;67933;51.060;3.638;2024-02-23T08:10:08;98987.16;;;5.28;100.00
78613;BME280;67933;51.060;3.638;2024-02-23T08:12:34;99006.31;;;5.30;100.00
78613;BME280;67933;51.060;3.638;2024-02-23T08:15:00;98994.53;;;5.35;100.00
78613;BME280;67933;51.060;3.638;2024-02-23T08:17:25;98997.31;;;5.47;100.00
78613;BME280;67933;51.060;3.638;2024-02-23T08:19:51;98998.38;;;5.57;100.00
78613;BME280;67933;51.060;3.638;2024-02-23T08:22:16;98995.97;;;5.66;100.00
78613;BME280;67933;51.060;3.638;2024-02-23T08:24:42;99012.50;;;5.68;100.00
78613;BME280;67933;51.060;3.638;2024-02-23T08:27:07;99001.66;;;5.73;100.00
78613;BME280;67933;51.060;3.638;2024-02-23T08:29:32;99001.78;;;5.71;100.00
78613;BME280;67933;51.060;3.638;2024-02-23T08:31:58;99007.66;;;5.62;100.00
78613;BME280;67933;51.060;3.638;2024-02-23T08:34:23;98996.06;;;5.52;100.00
78613;BME280;67933;51.060;3.638;2024-02-23T08:36:49;98998.34;;;5.44;100.00
78613;BME280;67933;51.060;3.638;2024-02-23T08:39:15;99008.34;;;5.39;100.00
78613;BME280;67933;51.060;3.638;2024-02-23T08:41:40;98999.59;;;5.38;100.00
78613;BME280;67933;51.060;3.638;2024-02-23T08:44:06;99008.25;;;5.40;100.00
78613;BME280;67933;51.060;3.638;2024-02-23T08:46:31;99006.13;;;5.46;100.00
78613;BME280;67933;51.060;3.638;2024-02-23T08:48:57;99010.13;;;5.51;100.00
78613;BME280;67933;51.060;3.638;2024-02-23T08:51:22;99022.91;;;5.57;100.00
78613;BME280;67933;51.060;3.638;2024-02-23T08:53:48;99031.94;;;5.66;100.00
78613;BME280;67933;51.060;3.638;2024-02-23T08:56:13;99029.78;;;5.72;100.00
78613;BME280;67933;51.060;3.638;2024-02-23T08:58:41;99036.16;;;5.68;100.00
78613;BME280;67933;51.060;3.638;2024-02-23T09:01:06;99036.25;;;5.67;100.00
78613;BME280;67933;51.060;3.638;2024-02-23T09:03:32;99025.31;;;5.60;100.00
78613;BME280;67933;51.060;3.638;2024-02-23T09:05:57;99037.53;;;5.61;100.00
78613;BME280;67933;51.060;3.638;2024-02-23T09:08:23;99023.63;;;5.59;100.00
78613;BME280;67933;51.060;3.638;2024-02-23T09:10:48;99021.66;;;5.63;100.00
78613;BME280;67933;51.060;3.638;2024-02-23T09:13:13;99044.06;;;5.68;100.00
78613;BME280;67933;51.060;3.638;2024-02-23T09:15:40;99033.53;;;5.68;100.00
78613;BME280;67933;51.060;3.638;2024-02-23T09:18:07;99029.66;;;5.74;100.00
78613;BME280;67933;51.060;3.638;2024-02-23T09:20:33;99039.56;;;5.83;100.00
78613;BME280;67933;51.060;3.638;2024-02-23T09:22:58;99028.78;;;5.88;100.00
78613;BME280;67933;51.060;3.638;2024-02-23T09:25:24;99042.34;;;5.94;100.00
78613;BME280;67933;51.060;3.638;2024-02-23T09:27:49;99043.72;;;6.00;100.00
78613;BME280;67933;51.060;3.638;2024-02-23T09:30:14;99034.69;;;6.04;100.00
78613;BME280;67933;51.060;3.638;2024-02-23T09:32:40;99041.41;;;6.08;100.00
78613;BME280;67933;51.060;3.638;2024-02-23T09:35:06;99047.00;;;6.03;100.00
78613;BME280;67933;51.060;3.638;2024-02-23T09:37:32;99052.13;;;6.05;100.00
78613;BME280;67933;51.060;3.638;2024-02-23T09:39:57;99044.75;;;5.97;100.00
78613;BME280;67933;51.060;3.638;2024-02-23T09:42:23;99064.94;;;5.84;100.00
78613;BME280;67933;51.060;3.638;2024-02-23T09:45:00;99053.22;;;5.75;100.00
78613;BME280;67933;51.060;3.638;2024-02-23T09:47:28;99059.03;;;5.80;100.00
78613;BME280;67933;51.060;3.638;2024-02-23T09:49:55;99053.78;;;5.80;100.00
78613;BME280;67933;51.060;3.638;2024-02-23T09:52:20;99045.66;;;5.84;100.00
78613;BME280;67933;51.060;3.638;2024-02-23T09:54:48;99058.63;;;5.87;100.00
78613;BME280;67933;51.060;3.638;2024-02-23T09:57:14;99054.88;;;5.91;100.00
78613;BME280;67933;51.060;3.638;2024-02-23T09:59:40;99069.81;;;5.90;100.00
78613;BME280;67933;51.060;3.638;2024-02-23T10:02:08;99064.78;;;6.00;100.00
78613;BME280;67933;51.060;3.638;2024-02-23T10:04:38;99069.19;;;6.12;100.00
78613;BME280;67933;51.060;3.638;2024-02-23T10:07:07;99062.59;;;6.19;100.00
78613;BME280;67933;51.060;3.638;2024-02-23T10:09:33;99080.38;;;6.28;100.00
78613;BME280;67933;51.060;3.638;2024-02-23T10:11:58;99067.75;;;6.33;100.00
78613;BME280;67933;51.060;3.638;2024-02-23T10:14:23;99081.00;;;6.44;100.00
78613;BME280;67933;51.060;3.638;2024-02-23T10:16:49;99072.06;;;6.60;100.00
78613;BME280;67933;51.060;3.638;2024-02-23T10:19:19;99071.50;;;6.80;100.00
78613;BME280;67933;51.060;3.638;2024-02-23T10:21:45;99085.50;;;6.93;100.00
78613;BME280;67933;51.060;3.638;2024-02-23T10:24:11;99093.38;;;7.06;100.00
78613;BME280;67933;51.060;3.638;2024-02-23T10:26:36;99085.00;;;7.24;100.00
78613;BME280;67933;51.060;3.638;2024-02-23T10:29:01;99087.00;;;7.21;100.00
78613;BME280;67933;51.060;3.638;2024-02-23T10:31:30;99101.56;;;7.26;100.00
78613;BME280;67933;51.060;3.638;2024-02-23T10:33:59;99107.84;;;7.37;100.00
78613;BME280;67933;51.060;3.638;2024-02-23T10:36:28;99111.00;;;7.42;100.00
78613;BME280;67933;51.060;3.638;2024-02-23T10:38:56;99109.59;;;7.49;100.00
78613;BME280;67933;51.060;3.638;2024-02-23T10:41:26;99112.75;;;7.17;100.00
78613;BME280;67933;51.060;3.638;2024-02-23T10:43:52;99123.31;;;7.05;100.00
78613;BME280;67933;51.060;3.638;2024-02-23T10:46:20;99125.94;;;7.17;100.00
78613;BME280;67933;51.060;3.638;2024-02-23T10:48:48;99140.53;;;7.10;100.00
78613;BME280;67933;51.060;3.638;2024-02-23T10:51:14;99128.81;;;7.02;100.00
78613;BME280;67933;51.060;3.638;2024-02-23T10:53:40;99132.00;;;6.94;100.00
78613;BME280;67933;51.060;3.638;2024-02-23T10:56:07;99133.91;;;6.92;100.00
78613;BME280;67933;51.060;3.638;2024-02-23T10:58:32;99138.00;;;6.96;100.00
78613;BME280;67933;51.060;3.638;2024-02-23T11:01:07;99137.16;;;6.95;100.00
78613;BME280;67933;51.060;3.638;2024-02-23T11:03:35;99140.34;;;6.88;100.00
78613;BME280;67933;51.060;3.638;2024-02-23T11:06:02;99140.97;;;6.79;100.00
78613;BME280;67933;51.060;3.638;2024-02-23T11:08:28;99145.19;;;6.69;100.00
78613;BME280;67933;51.060;3.638;2024-02-23T11:10:54;99135.81;;;6.77;100.00
78613;BME280;67933;51.060;3.638;2024-02-23T11:13:39;99144.56;;;6.78;100.00
78613;BME280;67933;51.060;3.638;2024-02-23T11:16:05;99162.06;;;6.79;100.00
78613;BME280;67933;51.060;3.638;2024-02-23T11:18:32;99140.66;;;6.96;100.00
78613;BME280;67933;51.060;3.638;2024-02-23T11:21:00;99144.91;;;7.59;100.00
78613;BME280;67933;51.060;3.638;2024-02-23T11:23:26;99148.34;;;7.96;100.00
78613;BME280;67933;51.060;3.638;2024-02-23T11:26:05;99145.31;;;7.89;100.00
78613;BME280;67933;51.060;3.638;2024-02-23T11:28:50;99164.56;;;7.79;100.00
78613;BME280;67933;51.060;3.638;2024-02-23T11:31:22;99141.00;;;8.23;100.00
78613;BME280;67933;51.060;3.638;2024-02-23T11:33:55;99155.91;;;9.37;100.00
78613;BME280;67933;51.060;3.638;2024-02-23T11:36:38;99152.78;;;9.86;100.00
78613;BME280;67933;51.060;3.638;2024-02-23T11:39:03;99151.56;;;9.47;100.00
78613;BME280;67933;51.060;3.638;2024-02-23T11:41:29;99149.38;;;8.41;100.00
78613;BME280;67933;51.060;3.638;2024-02-23T11:43:55;99148.53;;;8.17;100.00
78613;BME280;67933;51.060;3.638;2024-02-23T11:46:23;99155.59;;;7.81;100.00
78613;BME280;67933;51.060;3.638;2024-02-23T11:48:49;99146.81;;;7.57;100.00
78613;BME280;67933;51.060;3.638;2024-02-23T11:51:21;99156.56;;;7.44;100.00
78613;BME280;67933;51.060;3.638;2024-02-23T11:53:48;99160.28;;;7.41;100.00
78613;BME280;67933;51.060;3.638;2024-02-23T11:56:13;99153.75;;;7.34;100.00
78613;BME280;67933;51.060;3.638;2024-02-23T11:58:40;99156.56;;;7.44;100.00
78613;BME280;67933;51.060;3.638;2024-02-23T12:01:05;99163.09;;;7.51;100.00
78613;BME280;67933;51.060;3.638;2024-02-23T12:03:32;99160.22;;;7.54;100.00
78613;BME280;67933;51.060;3.638;2024-02-23T12:05:58;99150.03;;;7.73;100.00
78613;BME280;67933;51.060;3.638;2024-02-23T12:08:27;99154.13;;;7.77;100.00
78613;BME280;67933;51.060;3.638;2024-02-23T12:10:56;99159.69;;;7.61;100.00
78613;BME280;67933;51.060;3.638;2024-02-23T12:13:26;99163.81;;;7.53;100.00
78613;BME280;67933;51.060;3.638;2024-02-23T12:15:52;99157.69;;;7.52;100.00
78613;BME280;67933;51.060;3.638;2024-02-23T12:18:21;99152.72;;;7.60;100.00
78613;BME280;67933;51.060;3.638;2024-02-23T12:20:48;99151.00;;;7.72;100.00
78613;BME280;67933;51.060;3.638;2024-02-23T12:23:14;99145.47;;;7.99;100.00
78613;BME280;67933;51.060;3.638;2024-02-23T12:25:39;99146.63;;;8.19;100.00
78613;BME280;67933;51.060;3.638;2024-02-23T12:28:05;99137.16;;;8.51;100.00
78613;BME280;67933;51.060;3.638;2024-02-23T12:30:30;99143.78;;;8.79;100.00
78613;BME280;67933;51.060;3.638;2024-02-23T12:33:07;99140.06;;;9.15;100.00
78613;BME280;67933;51.060;3.638;2024-02-23T12:35:33;99129.25;;;10.04;100.00
78613;BME280;67933;51.060;3.638;2024-02-23T12:37:59;99124.53;;;10.39;100.00
78613;BME280;67933;51.060;3.638;2024-02-23T12:40:24;99136.69;;;9.24;100.00
78613;BME280;67933;51.060;3.638;2024-02-23T12:42:50;99123.84;;;8.86;100.00
78613;BME280;67933;51.060;3.638;2024-02-23T12:45:15;99121.00;;;9.54;100.00
78613;BME280;67933;51.060;3.638;2024-02-23T12:47:40;99109.50;;;9.22;100.00
78613;BME280;67933;51.060;3.638;2024-02-23T12:50:06;99113.84;;;9.12;100.00
78613;BME280;67933;51.060;3.638;2024-02-23T12:52:34;99101.00;;;8.96;100.00
78613;BME280;67933;51.060;3.638;2024-02-23T12:54:59;99101.47;;;8.68;100.00